Time;durP1;ratioP1;P1;durP2;ratioP2;P2;SDS_P1;SDS_P2;PMS_P1;PMS_P2;Temp;Humidity;BMP_temperature;BMP_pressure;BME280_temperature;BME280_humidity;BME280_pressure;Samples;Min_cycle;Max_cycle;Signal;HPM_P1;HPM_P2
2023/03/28 00:00:20;;;;;;;0.63;0.60;;;;;;;6.79;100.00;100454.88;2080899;28;20196;-64
2023/03/28 00:01:20;;;;;;;0.67;0.43;;;;;;;6.72;100.00;100463.22;2080393;28;20194;-64
2023/03/28 00:02:21;;;;;;;0.93;0.60;;;;;;;6.67;100.00;100433.38;2074996;28;20929;-64
2023/03/28 00:03:22;;;;;;;1.97;0.60;;;;;;;6.63;100.00;100454.66;2077264;28;20203;-65
2023/03/28 00:04:22;;;;;;;0.40;0.40;;;;;;;6.63;100.00;100451.91;2079898;28;20279;-63
2023/03/28 00:05:23;;;;;;;0.40;0.40;;;;;;;6.26;100.00;100402.34;2081279;28;20229;-64
2023/03/28 00:06:25;;;;;;;1.70;0.57;;;;;;;6.62;100.00;100447.59;2081097;28;20178;-64
2023/03/28 00:07:28;;;;;;;0.40;0.40;;;;;;;6.37;100.00;100397.53;2081952;28;20176;-64
2023/03/28 00:08:29;;;;;;;0.55;0.50;;;;;;;6.69;100.00;100452.25;2073690;28;20184;-64
2023/03/28 00:09:30;;;;;;;0.70;0.60;;;;;;;6.63;100.00;100471.19;2080552;28;20463;-64
2023/03/28 00:10:31;;;;;;;0.70;0.70;;;;;;;6.10;100.00;100377.34;2081495;28;20291;-64
2023/03/28 00:11:31;;;;;;;1.13;0.83;;;;;;;6.66;100.00;100475.88;2080301;28;20443;-63
2023/03/28 00:12:32;;;;;;;1.20;1.00;;;;;;;6.69;100.00;100463.25;2081259;28;20192;-64
2023/03/28 00:13:33;;;;;;;1.07;0.93;;;;;;;6.68;100.00;100456.97;2080241;28;20584;-64
2023/03/28 00:14:37;;;;;;;0.90;0.80;;;;;;;6.68;100.00;100456.19;2080772;28;20274;-63
2023/03/28 00:15:38;;;;;;;1.00;0.80;;;;;;;6.72;100.00;100457.69;2081418;28;20552;-63
2023/03/28 00:16:44;;;;;;;0.80;0.80;;;;;;;6.74;100.00;100482.09;2081323;28;20175;-63
2023/03/28 00:17:45;;;;;;;1.42;1.02;;;;;;;6.64;100.00;100467.25;2072659;28;20185;-63
2023/03/28 00:18:46;;;;;;;1.75;1.20;;;;;;;6.68;100.00;100459.72;2081362;28;20196;-63
2023/03/28 00:19:48;;;;;;;1.40;1.00;;;;;;;6.68;100.00;100458.94;2076087;28;20278;-63
2023/03/28 00:20:49;;;;;;;2.28;1.10;;;;;;;6.77;100.00;100470.25;2079153;28;20195;-62
2023/03/28 00:21:50;;;;;;;1.30;1.03;;;;;;;6.75;100.00;100454.13;2080003;28;20203;-63
2023/03/28 00:22:50;;;;;;;1.77;1.10;;;;;;;6.65;100.00;100444.03;2080699;28;20563;-63
2023/03/28 00:23:53;;;;;;;1.77;1.10;;;;;;;6.80;100.00;100461.94;2080470;28;20177;-63
2023/03/28 00:24:55;;;;;;;3.70;1.80;;;;;;;6.76;100.00;100465.94;2081404;28;20178;-63
2023/03/28 00:25:56;;;;;;;1.80;1.55;;;;;;;6.73;100.00;100467.53;2080731;28;20178;-63
2023/03/28 00:26:59;;;;;;;3.53;1.70;;;;;;;5.60;100.00;100299.22;2081291;28;20263;-64
2023/03/28 00:27:59;;;;;;;1.95;1.60;;;;;;;6.68;100.00;100470.75;2080915;28;20188;-63
2023/03/28 00:29:01;;;;;;;1.90;1.57;;;;;;;6.71;100.00;100477.41;2077501;28;20191;-64
2023/03/28 00:30:03;;;;;;;2.00;1.40;;;;;;;6.62;100.00;100450.34;2080975;28;20207;-63
2023/03/28 00:31:05;;;;;;;1.63;1.27;;;;;;;5.49;100.00;100303.25;2075823;28;20207;-64
2023/03/28 00:32:06;;;;;;;1.92;1.30;;;;;;;6.62;100.00;100447.59;2077837;28;20200;-64
2023/03/28 00:33:07;;;;;;;1.47;1.20;;;;;;;6.59;100.00;100470.44;2080686;28;20211;-64
2023/03/28 00:34:08;;;;;;;1.88;1.30;;;;;;;5.20;100.00;100261.50;2080323;28;20185;-64
2023/03/28 00:35:08;;;;;;;1.30;1.20;;;;;;;6.52;100.00;100465.00;2080941;28;20661;-63
2023/03/28 00:36:09;;;;;;;1.30;1.10;;;;;;;6.48;100.00;100461.50;2080772;28;20272;-64
2023/03/28 00:37:13;;;;;;;2.17;1.30;;;;;;;6.49;100.00;100467.78;2072815;28;20728;-65
2023/03/28 00:38:14;;;;;;;2.72;1.52;;;;;;;6.09;100.00;100422.56;2079841;28;20650;-64
2023/03/28 00:39:15;;;;;;;2.23;1.40;;;;;;;6.45;100.00;100464.28;2079869;28;20570;-64
2023/03/28 00:40:15;;;;;;;1.90;1.40;;;;;;;6.40;100.00;100481.25;2080922;28;20250;-64
2023/03/28 00:41:17;;;;;;;1.70;1.33;;;;;;;6.34;100.00;100489.16;2079835;28;20192;-64
2023/03/28 00:42:20;;;;;;;1.60;1.40;;;;;;;6.35;100.00;100473.44;2080870;28;20237;-64
2023/03/28 00:43:42;;;;;;;2.40;1.20;;;;;;;6.29;100.00;100473.09;2080424;28;20666;-64
2023/03/28 00:44:56;;;;;;;3.67;1.40;;;;;;;6.31;100.00;100478.94;2076802;28;20548;-63
2023/03/28 00:45:56;;;;;;;1.55;1.30;;;;;;;6.27;100.00;100466.44;2081958;28;20286;-63
2023/03/28 00:46:57;;;;;;;1.80;1.50;;;;;;;6.32;100.00;100463.22;2080453;28;20199;-64
2023/03/28 00:48:06;;;;;;;1.53;1.30;;;;;;;6.26;100.00;100482.13;2080031;28;20201;-64
2023/03/28 00:49:20;;;;;;;2.38;1.30;;;;;;;6.20;100.00;100472.00;2081175;28;20536;-63
2023/03/28 00:50:26;;;;;;;2.03;1.50;;;;;;;6.23;100.00;100465.66;2080784;28;20228;-64
2023/03/28 00:51:32;;;;;;;1.98;1.40;;;;;;;6.26;100.00;100454.63;2080258;28;20182;-64
2023/03/28 00:52:41;;;;;;;1.30;1.20;;;;;;;6.20;100.00;100469.25;2080750;28;20249;-64
2023/03/28 00:53:42;;;;;;;1.60;1.25;;;;;;;6.13;100.00;100463.78;2080426;28;20171;-64
2023/03/28 00:54:44;;;;;;;1.60;1.30;;;;;;;6.16;100.00;100480.25;2079973;28;20393;-62
2023/03/28 00:56:01;;;;;;;1.38;1.20;;;;;;;6.14;100.00;100468.91;2081091;28;20191;-64
2023/03/28 00:57:02;;;;;;;1.90;1.55;;;;;;;6.11;100.00;100468.94;2073141;28;20473;-64
2023/03/28 00:58:08;;;;;;;1.70;1.23;;;;;;;5.71;100.00;100409.09;2073100;28;20232;-63
2023/03/28 00:59:13;;;;;;;2.45;1.40;;;;;;;6.09;100.00;100455.56;2078966;28;20187;-64
2023/03/28 01:00:17;;;;;;;3.70;1.65;;;;;;;6.01;100.00;100467.03;2073582;28;20192;-64
2023/03/28 01:01:19;;;;;;;1.73;1.60;;;;;;;5.97;100.00;100458.03;2079042;28;20197;-64
2023/03/28 01:02:20;;;;;;;1.80;1.40;;;;;;;5.92;100.00;100473.00;2080768;28;20570;-63
2023/03/28 01:03:26;;;;;;;2.30;1.80;;;;;;;5.91;100.00;100445.91;2080238;28;20193;-64
2023/03/28 01:04:35;;;;;;;2.00;1.80;;;;;;;5.90;100.00;100447.09;2079857;28;20194;-65
2023/03/28 01:05:35;;;;;;;1.90;1.70;;;;;;;5.45;100.00;100401.44;2080071;28;20712;-63
2023/03/28 01:06:40;;;;;;;3.60;1.90;;;;;;;5.35;100.00;100399.53;2077632;28;20595;-64
2023/03/28 01:07:44;;;;;;;2.40;1.80;;;;;;;5.87;100.00;100459.69;2075247;28;20251;-64
2023/03/28 01:08:46;;;;;;;2.17;1.90;;;;;;;5.91;100.00;100471.44;2078391;28;20263;-64
2023/03/28 01:09:47;;;;;;;2.30;1.98;;;;;;;5.96;100.00;100453.72;2079861;28;20220;-62
2023/03/28 01:10:48;;;;;;;3.67;2.15;;;;;;;5.97;100.00;100472.56;2088698;28;20182;-64
2023/03/28 01:11:50;;;;;;;2.13;1.73;;;;;;;6.01;100.00;100489.03;2080451;28;20178;-64
2023/03/28 01:12:54;;;;;;;1.90;1.80;;;;;;;5.97;100.00;100483.59;2077994;28;20581;-63
2023/03/28 01:13:57;;;;;;;2.63;2.00;;;;;;;5.93;100.00;100482.81;2079807;28;20694;-63
2023/03/28 01:14:59;;;;;;;2.80;2.20;;;;;;;5.92;100.00;100484.00;2082941;28;20684;-63
2023/03/28 01:16:02;;;;;;;3.95;2.13;;;;;;;5.92;100.00;100475.75;2075684;28;20231;-65
2023/03/28 01:17:02;;;;;;;2.65;2.00;;;;;;;5.85;100.00;100472.28;2076107;28;20580;-63
2023/03/28 01:18:09;;;;;;;2.83;2.10;;;;;;;5.90;100.00;100482.84;2080890;28;20180;-64
2023/03/28 01:19:58;;;;;;;2.47;2.10;;;;;;;5.84;100.00;100487.22;2080805;28;20525;-64
2023/03/28 01:21:04;;;;;;;2.58;2.10;;;;;;;5.84;100.00;100468.72;2047286;28;20721;-64
2023/03/28 01:22:29;;;;;;;2.33;1.90;;;;;;;5.89;100.00;100490.31;2053728;28;20260;-64
2023/03/28 01:23:41;;;;;;;2.28;1.70;;;;;;;5.85;100.00;100502.53;2072394;28;20176;-63
2023/03/28 01:24:50;;;;;;;1.88;1.65;;;;;;;5.87;100.00;100486.41;2080268;28;20179;-64
2023/03/28 01:26:48;;;;;;;1.95;1.63;;;;;;;5.91;100.00;100503.66;2080507;28;20174;-64
2023/03/28 01:28:00;;;;;;;2.05;1.75;;;;;;;5.70;100.00;100463.28;2047405;29;20682;-64
2023/03/28 01:29:23;;;;;;;1.73;1.50;;;;;;;5.79;100.00;100498.63;2047522;28;20205;-64
2023/03/28 01:30:32;;;;;;;1.83;1.60;;;;;;;5.81;100.00;100518.25;2047238;29;20202;-65
2023/03/28 01:31:57;;;;;;;1.92;1.60;;;;;;;5.85;100.00;100516.28;2038906;29;20194;-63
2023/03/28 01:33:08;;;;;;;2.17;1.65;;;;;;;5.84;100.00;100520.22;2056987;28;20192;-63
2023/03/28 01:34:23;;;;;;;2.30;1.40;;;;;;;5.77;100.00;100506.47;2079783;28;20170;-64
2023/03/28 01:35:31;;;;;;;1.95;1.50;;;;;;;5.72;100.00;100526.94;2080039;28;20288;-65
2023/03/28 01:36:53;;;;;;;1.40;1.30;;;;;;;5.73;100.00;100519.44;2080666;28;20179;-63
2023/03/28 01:38:16;;;;;;;1.90;1.40;;;;;;;5.77;100.00;100528.47;2080500;28;20252;-63
2023/03/28 01:39:20;;;;;;;1.88;1.58;;;;;;;5.77;100.00;100511.97;2080690;28;20195;-65
2023/03/28 01:40:47;;;;;;;1.60;1.50;;;;;;;5.69;100.00;100505.72;2080191;28;20201;-64
2023/03/28 01:42:15;;;;;;;1.60;1.30;;;;;;;5.23;100.00;100430.25;2071822;28;20557;-63
2023/03/28 01:43:31;;;;;;;2.95;1.20;;;;;;;5.73;100.00;100498.25;2073665;28;20264;-63
2023/03/28 01:44:42;;;;;;;1.75;1.30;;;;;;;5.64;100.00;100495.16;2079294;28;20275;-65
2023/03/28 01:45:42;;;;;;;1.83;1.60;;;;;;;5.63;100.00;100512.03;2077536;28;20288;-63
2023/03/28 01:46:54;;;;;;;2.13;1.60;;;;;;;5.65;100.00;100529.69;2074451;28;20187;-64
2023/03/28 01:48:00;;;;;;;2.25;1.40;;;;;;;5.65;100.00;100499.47;2080422;28;20651;-64
2023/03/28 01:49:32;;;;;;;1.98;1.40;;;;;;;5.65;100.00;100532.44;2079155;28;20238;-64
2023/03/28 01:51:02;;;;;;;2.25;1.48;;;;;;;5.23;100.00;100457.72;2080635;28;20651;-64
2023/03/28 01:52:26;;;;;;;2.30;1.50;;;;;;;5.56;100.00;100512.09;2079179;28;20197;-64
2023/03/28 01:54:01;;;;;;;2.58;1.63;;;;;;;5.52;100.00;100508.56;2071483;28;21133;-64
2023/03/28 01:55:08;;;;;;;2.60;1.40;;;;;;;5.61;100.00;100523.47;2080869;28;20277;-63
2023/03/28 01:56:14;;;;;;;4.25;1.50;;;;;;;5.61;100.00;100523.47;2080200;28;20195;-64
2023/03/28 01:57:36;;;;;;;1.35;1.25;;;;;;;5.62;100.00;100525.03;2080204;28;20203;-64
2023/03/28 01:58:51;;;;;;;2.67;1.30;;;;;;;5.58;100.00;100529.75;2079338;28;20662;-64
2023/03/28 01:59:57;;;;;;;2.92;1.65;;;;;;;5.61;100.00;100536.41;2079871;28;20216;-64
2023/03/28 02:01:04;;;;;;;2.67;1.52;;;;;;;5.56;100.00;100521.13;2075071;28;20707;-64
2023/03/28 02:02:13;;;;;;;2.78;1.33;;;;;;;5.44;100.00;100526.28;2076979;28;20592;-63
2023/03/28 02:03:21;;;;;;;2.90;1.40;;;;;;;5.61;100.00;100522.66;2079918;28;20189;-63
2023/03/28 02:04:24;;;;;;;2.38;1.60;;;;;;;4.78;100.00;100399.03;2075980;28;20258;-64
2023/03/28 02:05:28;;;;;;;1.42;1.10;;;;;;;5.51;100.00;100540.78;2080216;28;20222;-63
2023/03/28 02:06:30;;;;;;;2.50;1.42;;;;;;;5.00;100.00;100465.66;2080294;28;20277;-64
2023/03/28 02:07:32;;;;;;;1.45;1.35;;;;;;;5.47;100.00;100556.50;2079796;28;20197;-64
2023/03/28 02:08:38;;;;;;;2.50;1.35;;;;;;;5.44;100.00;100571.03;2080520;28;20252;-64
2023/03/28 02:09:42;;;;;;;6.57;1.42;;;;;;;5.42;100.00;100556.91;2080322;28;20619;-63
2023/03/28 02:10:45;;;;;;;2.08;1.52;;;;;;;5.41;100.00;100571.84;2088240;28;20188;-63
2023/03/28 02:11:49;;;;;;;1.80;1.50;;;;;;;5.45;100.00;100556.13;2079286;28;20533;-63
2023/03/28 02:12:56;;;;;;;2.05;1.67;;;;;;;5.47;100.00;100555.72;2080392;28;20260;-64
2023/03/28 02:14:03;;;;;;;2.13;1.40;;;;;;;5.46;100.00;100559.66;2079797;28;20566;-64
2023/03/28 02:15:07;;;;;;;1.85;1.55;;;;;;;5.44;100.00;100587.53;2078913;28;20198;-63
2023/03/28 02:16:10;;;;;;;1.90;1.60;;;;;;;5.44;100.00;100578.50;2080122;28;20724;-63
2023/03/28 02:17:14;;;;;;;2.10;1.60;;;;;;;5.29;100.00;100555.00;2082352;28;20198;-64
2023/03/28 02:18:22;;;;;;;3.70;1.80;;;;;;;5.45;100.00;100571.81;2080141;28;20194;-63
2023/03/28 02:19:26;;;;;;;2.85;2.00;;;;;;;5.40;100.00;100570.28;2080443;28;20192;-64
2023/03/28 02:20:31;;;;;;;1.70;1.60;;;;;;;5.38;100.00;100580.09;2079583;28;20255;-64
2023/03/28 02:21:55;;;;;;;3.28;1.70;;;;;;;5.40;100.00;100569.50;2079195;28;20219;-65
2023/03/28 02:23:06;;;;;;;1.90;1.70;;;;;;;5.41;100.00;100566.34;2077966;28;20608;-64
2023/03/28 02:24:08;;;;;;;2.50;1.73;;;;;;;5.36;100.00;100568.72;2079544;28;20194;-64
2023/03/28 02:25:09;;;;;;;3.28;2.10;;;;;;;5.14;100.00;100534.25;2079881;28;20209;-64
2023/03/28 02:26:09;;;;;;;2.10;1.90;;;;;;;5.36;100.00;100605.22;2080156;28;20668;-64
2023/03/28 02:27:10;;;;;;;2.70;1.90;;;;;;;5.32;100.00;100587.97;2077495;28;20205;-64
2023/03/28 02:28:12;;;;;;;2.43;2.00;;;;;;;5.31;100.00;100577.38;2073645;28;20209;-64
2023/03/28 02:29:14;;;;;;;3.00;1.92;;;;;;;5.32;100.00;100576.19;2080363;28;20186;-64
2023/03/28 02:30:16;;;;;;;2.40;2.08;;;;;;;5.31;100.00;100589.16;2079688;28;20186;-64
2023/03/28 02:31:17;;;;;;;3.20;2.10;;;;;;;5.32;100.00;100593.47;2071503;28;20195;-64
2023/03/28 02:32:20;;;;;;;2.35;1.80;;;;;;;5.31;100.00;100591.09;2079617;28;20324;-65
2023/03/28 02:33:40;;;;;;;1.98;1.60;;;;;;;5.31;100.00;100594.66;2079889;28;20208;-64
2023/03/28 02:34:43;;;;;;;2.40;1.88;;;;;;;5.21;100.00;100587.22;2080260;28;20246;-64
2023/03/28 02:36:19;;;;;;;2.33;1.60;;;;;;;5.22;100.00;100602.50;2080848;28;20204;-64
2023/03/28 02:37:31;;;;;;;2.03;1.63;;;;;;;5.27;100.00;100621.34;2054564;28;20216;-64
2023/03/28 02:38:58;;;;;;;1.80;1.50;;;;;;;5.22;100.00;100629.19;2079125;28;20235;-64
2023/03/28 02:40:19;;;;;;;1.90;1.50;;;;;;;5.20;100.00;100626.06;2076252;28;20190;-63
2023/03/28 02:41:38;;;;;;;1.92;1.70;;;;;;;5.18;100.00;100637.44;2079169;28;20231;-64
2023/03/28 02:42:47;;;;;;;2.38;1.67;;;;;;;5.18;100.00;100642.19;2073043;28;20695;-64
2023/03/28 02:44:12;;;;;;;1.98;1.60;;;;;;;5.19;100.00;100644.50;2078484;28;20206;-63
2023/03/28 02:45:54;;;;;;;3.05;1.85;;;;;;;5.13;100.00;100648.84;2081809;28;20285;-63
2023/03/28 02:47:07;;;;;;;2.65;1.90;;;;;;;5.18;100.00;100648.44;2075829;28;20736;-63
2023/03/28 02:48:07;;;;;;;2.88;2.10;;;;;;;5.15;100.00;100649.25;2079224;28;20203;-64
2023/03/28 02:49:25;;;;;;;2.30;2.00;;;;;;;5.20;100.00;100656.28;2079595;28;20194;-64
2023/03/28 02:50:37;;;;;;;2.42;2.10;;;;;;;5.23;100.00;100669.25;2073572;28;20275;-64
2023/03/28 02:51:48;;;;;;;1.98;1.70;;;;;;;4.54;100.00;100558.31;2079110;28;20228;-63
2023/03/28 02:53:06;;;;;;;1.98;1.55;;;;;;;5.14;100.00;100666.88;2079009;28;20296;-63
2023/03/28 02:54:36;;;;;;;2.50;1.75;;;;;;;5.27;100.00;100678.25;2078932;28;20201;-63
2023/03/28 02:55:57;;;;;;;2.15;1.80;;;;;;;5.23;100.00;100669.25;2074227;28;20205;-64
2023/03/28 02:57:11;;;;;;;3.25;2.20;;;;;;;5.33;100.00;100673.94;2074104;28;20545;-63
2023/03/28 02:58:33;;;;;;;2.42;2.00;;;;;;;5.33;100.00;100671.97;2079948;28;20215;-64
2023/03/28 03:00:01;;;;;;;2.33;2.05;;;;;;;5.33;100.00;100680.19;2075498;28;20603;-64
2023/03/28 03:01:05;;;;;;;2.83;2.10;;;;;;;5.29;100.00;100693.16;2072633;28;20226;-64
2023/03/28 03:02:07;;;;;;;2.95;2.17;;;;;;;5.27;100.00;100689.25;2078452;28;20574;-63
2023/03/28 03:03:09;;;;;;;2.58;2.30;;;;;;;5.31;100.00;100679.81;2079918;28;20247;-63
2023/03/28 03:04:12;;;;;;;3.13;2.20;;;;;;;5.31;100.00;100690.03;2078686;28;20216;-63
2023/03/28 03:05:12;;;;;;;2.55;2.33;;;;;;;5.34;100.00;100683.75;2079423;28;20274;-64
2023/03/28 03:06:13;;;;;;;3.13;2.30;;;;;;;5.29;100.00;100686.91;2079470;28;20186;-63
2023/03/28 03:07:13;;;;;;;2.73;2.43;;;;;;;5.39;100.00;100688.84;2079467;28;20192;-63
2023/03/28 03:08:14;;;;;;;3.63;2.37;;;;;;;5.35;100.00;100691.59;2072305;28;20240;-64
2023/03/28 03:09:16;;;;;;;2.97;2.00;;;;;;;5.32;100.00;100694.34;2079769;28;20201;-64
2023/03/28 03:10:17;;;;;;;3.03;2.40;;;;;;;5.35;100.00;100696.31;2083141;28;20203;-63
2023/03/28 03:11:18;;;;;;;3.03;2.30;;;;;;;5.37;100.00;100704.91;2072384;28;20197;-63
2023/03/28 03:12:20;;;;;;;2.73;2.23;;;;;;;5.37;100.00;100702.97;2076508;28;20710;-63
2023/03/28 03:13:20;;;;;;;3.15;2.45;;;;;;;4.47;100.00;100550.09;2079905;28;20200;-63
2023/03/28 03:14:21;;;;;;;3.43;2.67;;;;;;;5.45;100.00;100706.50;2079096;28;20215;-63
2023/03/28 03:15:21;;;;;;;2.70;2.20;;;;;;;5.01;100.00;100624.53;2079394;28;20224;-63
2023/03/28 03:16:22;;;;;;;2.43;2.10;;;;;;;5.47;100.00;100693.94;2079899;28;20171;-64
2023/03/28 03:17:23;;;;;;;2.90;2.50;;;;;;;5.51;100.00;100722.19;2079574;28;20631;-63
2023/03/28 03:18:23;;;;;;;2.50;2.30;;;;;;;5.45;100.00;100699.03;2079469;28;20196;-63
2023/03/28 03:19:23;;;;;;;5.00;2.47;;;;;;;5.49;100.00;100705.28;2079721;28;20254;-65
2023/03/28 03:20:25;;;;;;;2.87;2.40;;;;;;;5.51;100.00;100715.91;2079751;28;20228;-64
2023/03/28 03:21:26;;;;;;;3.50;2.17;;;;;;;5.41;100.00;100708.47;2074702;28;20293;-63
2023/03/28 03:22:26;;;;;;;3.30;2.00;;;;;;;5.26;100.00;100688.47;2079037;28;20265;-62
2023/03/28 03:23:27;;;;;;;2.60;1.97;;;;;;;4.73;100.00;100641.00;2079524;28;20264;-63
2023/03/28 03:24:27;;;;;;;3.90;2.37;;;;;;;5.30;100.00;100721.44;2078447;28;20185;-63
2023/03/28 03:25:30;;;;;;;2.90;2.10;;;;;;;5.32;100.00;100728.09;2079837;28;20667;-63
2023/03/28 03:26:31;;;;;;;3.45;2.28;;;;;;;5.42;100.00;100729.25;2078994;28;20210;-63
2023/03/28 03:27:32;;;;;;;3.30;2.23;;;;;;;5.27;100.00;100695.53;2079210;28;20711;-63
2023/03/28 03:28:33;;;;;;;4.32;2.10;;;;;;;5.26;100.00;100693.97;2079569;28;20198;-64
2023/03/28 03:29:33;;;;;;;5.83;2.30;;;;;;;5.31;100.00;100707.31;2079637;28;20201;-64
2023/03/28 03:30:34;;;;;;;2.87;1.90;;;;;;;5.33;100.00;100735.16;2076488;28;20226;-63
2023/03/28 03:31:35;;;;;;;3.30;1.80;;;;;;;5.35;100.00;100726.53;2073089;28;20492;-62
2023/03/28 03:32:38;;;;;;;2.55;2.00;;;;;;;5.37;100.00;100724.16;2079817;28;20223;-63
2023/03/28 03:33:40;;;;;;;3.58;2.00;;;;;;;5.29;100.00;100728.88;2079227;28;20588;-64
2023/03/28 03:34:40;;;;;;;2.20;1.90;;;;;;;5.31;100.00;100729.28;2079908;28;20637;-63
2023/03/28 03:35:44;;;;;;;3.37;1.97;;;;;;;5.34;100.00;100724.97;2079615;28;20185;-63
2023/03/28 03:36:45;;;;;;;4.95;2.15;;;;;;;5.32;100.00;100749.28;2073314;28;20198;-63
2023/03/28 03:37:45;;;;;;;1.80;1.50;;;;;;;5.28;100.00;100754.78;2076661;28;20220;-64
2023/03/28 03:38:46;;;;;;;2.23;1.70;;;;;;;5.29;100.00;100730.84;2079971;28;20201;-64
2023/03/28 03:39:47;;;;;;;3.65;1.70;;;;;;;5.30;100.00;100733.22;2079810;28;20205;-63
2023/03/28 03:40:47;;;;;;;2.13;1.50;;;;;;;5.30;100.00;100752.44;2080261;28;20220;-63
2023/03/28 03:41:48;;;;;;;2.13;1.57;;;;;;;5.27;100.00;100730.44;2079005;28;20227;-63
2023/03/28 03:42:48;;;;;;;3.77;1.63;;;;;;;5.14;100.00;100754.78;2079008;28;20189;-63
2023/03/28 03:43:48;;;;;;;2.07;1.60;;;;;;;5.36;100.00;100744.59;2079967;28;20174;-63
2023/03/28 03:44:49;;;;;;;1.90;1.60;;;;;;;5.40;100.00;100753.63;2080051;28;20278;-64
2023/03/28 03:45:50;;;;;;;1.70;1.43;;;;;;;5.31;100.00;100751.28;2079867;28;20203;-63
2023/03/28 03:46:50;;;;;;;2.37;1.53;;;;;;;5.25;100.00;100765.78;2079382;28;20647;-63
2023/03/28 03:47:51;;;;;;;2.03;1.60;;;;;;;5.29;100.00;100756.34;2079862;28;20201;-64
2023/03/28 03:48:51;;;;;;;2.00;1.63;;;;;;;5.30;100.00;100777.19;2077450;28;20285;-63
2023/03/28 03:49:52;;;;;;;2.67;1.73;;;;;;;5.15;100.00;100759.13;2072842;28;20177;-63
2023/03/28 03:50:52;;;;;;;2.80;1.50;;;;;;;5.30;100.00;100776.38;2079716;28;20224;-63
2023/03/28 03:51:52;;;;;;;3.17;1.47;;;;;;;5.26;100.00;100779.13;2079095;28;20233;-63
2023/03/28 03:52:53;;;;;;;2.90;1.30;;;;;;;5.25;100.00;100796.00;2079799;28;20194;-63
2023/03/28 03:53:53;;;;;;;1.97;1.37;;;;;;;5.03;100.00;100742.25;2079369;28;20224;-63
2023/03/28 03:54:54;;;;;;;2.40;1.60;;;;;;;5.26;100.00;100776.38;2079890;28;20199;-63
2023/03/28 03:55:59;;;;;;;2.20;1.70;;;;;;;5.31;100.00;100783.44;2079274;28;20193;-64
2023/03/28 03:57:01;;;;;;;2.13;1.63;;;;;;;5.28;100.00;100781.50;2080105;28;20581;-64
2023/03/28 03:58:02;;;;;;;1.98;1.30;;;;;;;5.24;100.00;100784.22;2079774;28;20567;-64
2023/03/28 03:59:02;;;;;;;2.37;1.60;;;;;;;5.28;100.00;100781.50;2079624;28;20177;-62
2023/03/28 04:00:10;;;;;;;2.13;1.60;;;;;;;5.32;100.00;100779.50;2078491;28;20179;-67
2023/03/28 04:01:13;;;;;;;2.33;1.60;;;;;;;5.28;100.00;100776.00;2077488;28;20276;-67
2023/03/28 04:02:13;;;;;;;2.85;1.65;;;;;;;5.32;100.00;100780.31;2079206;28;20490;-68
2023/03/28 04:03:13;;;;;;;3.27;1.70;;;;;;;5.29;100.00;100789.31;2079330;28;20197;-67
2023/03/28 04:04:14;;;;;;;3.37;1.80;;;;;;;5.29;100.00;100789.31;2079203;28;20576;-67
2023/03/28 04:05:14;;;;;;;1.90;1.60;;;;;;;5.30;100.00;100785.44;2079929;28;20197;-65
2023/03/28 04:06:15;;;;;;;2.27;1.60;;;;;;;5.29;100.00;100789.31;2079466;28;20199;-64
2023/03/28 04:07:15;;;;;;;1.87;1.60;;;;;;;5.29;100.00;100785.81;2074544;28;20323;-68
2023/03/28 04:08:16;;;;;;;2.67;1.70;;;;;;;5.29;100.00;100792.06;2080626;28;20260;-64
2023/03/28 04:09:16;;;;;;;3.23;1.90;;;;;;;5.30;100.00;100801.91;2079799;28;20589;-64
2023/03/28 04:10:17;;;;;;;2.73;1.53;;;;;;;5.27;100.00;100786.19;2084107;28;20195;-66
2023/03/28 04:11:17;;;;;;;2.83;1.73;;;;;;;5.22;100.00;100789.34;2070788;28;20252;-66
2023/03/28 04:12:17;;;;;;;2.93;1.83;;;;;;;4.62;100.00;100710.81;2078335;28;20193;-68
2023/03/28 04:13:18;;;;;;;2.53;1.80;;;;;;;4.74;100.00;100721.41;2075577;28;20213;-65
2023/03/28 04:14:19;;;;;;;2.07;1.67;;;;;;;4.62;100.00;100686.91;2075967;28;20671;-65
2023/03/28 04:15:19;;;;;;;1.98;1.60;;;;;;;5.28;100.00;100804.25;2081275;28;20201;-62
2023/03/28 04:16:20;;;;;;;2.73;1.97;;;;;;;5.08;100.00;100788.56;2080938;28;20196;-62
2023/03/28 04:17:22;;;;;;;3.70;1.90;;;;;;;5.25;100.00;100810.53;2081199;28;20682;-61
2023/03/28 04:18:22;;;;;;;2.42;2.00;;;;;;;5.31;100.00;100822.72;2081205;28;20187;-63
2023/03/28 04:19:23;;;;;;;3.17;2.00;;;;;;;5.30;100.00;100829.38;2080956;28;20200;-61
2023/03/28 04:20:25;;;;;;;2.43;1.63;;;;;;;4.85;100.00;100755.97;2081024;28;20205;-62
2023/03/28 04:21:28;;;;;;;3.95;1.70;;;;;;;5.28;100.00;100820.72;2079847;28;20813;-63
2023/03/28 04:22:29;;;;;;;2.17;1.83;;;;;;;5.23;100.00;100817.59;2080196;28;20710;-62
2023/03/28 04:23:30;;;;;;;3.33;1.90;;;;;;;5.24;100.00;100814.44;2080124;28;20273;-62
2023/03/28 04:24:30;;;;;;;2.57;1.80;;;;;;;5.27;100.00;100816.44;2080489;28;20204;-63
2023/03/28 04:25:30;;;;;;;3.33;1.93;;;;;;;5.33;100.00;100823.09;2080405;28;20182;-61
2023/03/28 04:26:34;;;;;;;3.23;2.40;;;;;;;5.34;100.00;100813.66;2080738;28;20261;-65
2023/03/28 04:27:34;;;;;;;3.05;2.20;;;;;;;5.26;100.00;100820.34;2080949;28;20191;-61
2023/03/28 04:28:35;;;;;;;3.47;2.63;;;;;;;5.33;100.00;100822.31;2080964;28;20191;-63
2023/03/28 04:29:36;;;;;;;2.87;2.10;;;;;;;5.35;100.00;100841.94;2076436;28;20578;-65
2023/03/28 04:30:37;;;;;;;2.97;2.50;;;;;;;5.29;100.00;100827.03;2079329;28;20283;-68
2023/03/28 04:31:38;;;;;;;4.37;2.60;;;;;;;5.27;100.00;100823.88;2077232;28;20194;-63
2023/03/28 04:32:39;;;;;;;4.35;2.65;;;;;;;5.27;100.00;100823.88;2074406;28;20194;-66
2023/03/28 04:33:39;;;;;;;4.37;2.60;;;;;;;5.22;100.00;100821.50;2078453;28;20280;-66
2023/03/28 04:34:40;;;;;;;4.30;2.80;;;;;;;5.29;100.00;100847.03;2079940;28;20281;-67
2023/03/28 04:35:40;;;;;;;4.27;3.10;;;;;;;5.30;100.00;100845.88;2079159;28;20584;-69
2023/03/28 04:36:42;;;;;;;3.30;2.80;;;;;;;5.39;100.00;100843.50;2078378;28;20215;-67
2023/03/28 04:37:43;;;;;;;3.40;2.90;;;;;;;5.37;100.00;100829.38;2080968;28;20281;-63
2023/03/28 04:38:44;;;;;;;4.17;3.17;;;;;;;5.47;100.00;100849.78;2076231;28;20206;-63
2023/03/28 04:39:48;;;;;;;4.25;3.20;;;;;;;5.46;100.00;100850.97;2079741;28;20603;-62
2023/03/28 04:40:48;;;;;;;3.40;2.85;;;;;;;5.04;100.00;100815.22;2078090;28;20206;-62
2023/03/28 04:41:54;;;;;;;3.37;2.90;;;;;;;5.55;100.00;100854.13;2076349;28;20308;-63
2023/03/28 04:42:54;;;;;;;3.20;2.60;;;;;;;5.53;100.00;100842.75;2077646;28;20180;-64
2023/03/28 04:43:55;;;;;;;3.33;2.90;;;;;;;5.57;100.00;100841.56;2079750;28;20207;-63
2023/03/28 04:44:55;;;;;;;3.40;3.03;;;;;;;5.61;100.00;100849.81;2082893;28;20219;-65
2023/03/28 04:45:57;;;;;;;3.47;2.90;;;;;;;5.63;100.00;100850.19;2082038;28;20198;-64
2023/03/28 04:46:57;;;;;;;4.00;3.05;;;;;;;5.60;100.00;100845.50;2084641;28;20281;-65
2023/03/28 04:47:58;;;;;;;3.87;3.27;;;;;;;5.58;100.00;100862.38;2082840;28;20196;-65
2023/03/28 04:48:58;;;;;;;3.80;3.03;;;;;;;5.59;100.00;100865.91;2082230;28;20201;-64
2023/03/28 04:49:59;;;;;;;5.27;3.30;;;;;;;5.44;100.00;100815.63;2086338;28;20196;-64
2023/03/28 04:50:59;;;;;;;4.70;3.60;;;;;;;5.63;100.00;100844.69;2086801;28;20208;-64
2023/03/28 04:52:00;;;;;;;4.90;3.70;;;;;;;5.53;100.00;100827.03;2086309;28;20275;-64
2023/03/28 04:53:00;;;;;;;4.90;3.70;;;;;;;5.59;100.00;100846.66;2082224;28;20185;-64
2023/03/28 04:54:01;;;;;;;4.50;3.60;;;;;;;5.56;100.00;100840.00;2081814;28;20193;-64
2023/03/28 04:55:01;;;;;;;4.60;3.37;;;;;;;5.15;100.00;100772.84;2083964;28;20213;-64
2023/03/28 04:56:02;;;;;;;6.87;3.80;;;;;;;5.62;100.00;100852.16;2084457;28;20183;-65
2023/03/28 04:57:03;;;;;;;3.77;3.30;;;;;;;5.65;100.00;100839.59;2085093;28;20274;-65
2023/03/28 04:58:04;;;;;;;6.40;4.00;;;;;;;5.20;100.00;100766.97;2080215;28;20595;-64
2023/03/28 04:59:05;;;;;;;4.57;3.70;;;;;;;5.67;100.00;100851.78;2079740;28;20275;-63
2023/03/28 05:00:09;;;;;;;5.00;3.50;;;;;;;5.68;100.00;100844.28;2081707;28;20194;-64
2023/03/28 05:01:10;;;;;;;3.63;2.95;;;;;;;5.64;100.00;100854.53;2080680;28;20193;-64
2023/03/28 05:02:10;;;;;;;5.00;3.30;;;;;;;5.15;100.00;100789.34;2083003;28;20211;-65
2023/03/28 05:03:23;;;;;;;3.47;3.00;;;;;;;5.61;100.00;100836.84;2082092;28;20719;-64